Nouakchott, Mauritania
Current Conditions -  °F | °C
As of 4:30 PM on Wednesday 26 Nov 2014 (Local Time) from GQNN Reporting Station
Clear Clear  
Wind Chill: 86°   Ceiling: Unl
Heat Index: 86°   Visibility: 5mi
Dew Point: 55°   Wind: 7mph
Humidity: 35%   Direction: 30°NNE
Pressure: 29.88"   Gusts: NA
Location:  18.09°N, 15.98°W
Report Text: GQNN 261630Z 03006KT 300V060 8000 NSC 30/13 Q1012 NOSIG
Loading
Personal Weather Stations






























Interactive Weather Map New forecast layout! Learn more

10-Day Weather Forecast

Advertisements
Track Severe Weather on mobile